createdAt,value
2022-10-31T00:01:11.390Z,980.94
2022-10-31T00:06:43.098Z,980.82
2022-10-31T00:12:14.831Z,980.72
2022-10-31T00:17:46.651Z,980.69
2022-10-31T00:23:22.642Z,980.51
2022-10-31T00:28:54.342Z,980.51
2022-10-31T00:34:26.345Z,980.35
2022-10-31T00:39:57.770Z,980.51
2022-10-31T00:45:29.534Z,980.6
2022-10-31T00:51:01.319Z,980.81
2022-10-31T00:56:33.070Z,980.89
2022-10-31T01:02:05.118Z,980.98
2022-10-31T01:07:36.437Z,980.98
2022-10-31T01:13:08.173Z,981.03
2022-10-31T01:18:39.830Z,981.05
2022-10-31T01:24:18.013Z,981.01
2022-10-31T01:29:49.710Z,981.06
2022-10-31T01:35:21.457Z,981.07
2022-10-31T01:40:53.090Z,981.03
2022-10-31T01:46:24.946Z,980.92
2022-10-31T01:51:56.598Z,980.83
2022-10-31T01:57:28.334Z,981.03
2022-10-31T02:03:01.504Z,981.0
2022-10-31T02:08:31.753Z,980.88
2022-10-31T02:14:03.486Z,980.95
2022-10-31T02:19:35.266Z,980.92
2022-10-31T02:25:11.494Z,981.05
2022-10-31T02:30:43.218Z,980.8
2022-10-31T02:36:14.842Z,980.67
2022-10-31T02:41:46.554Z,980.66
2022-10-31T02:47:18.277Z,980.75
2022-10-31T02:52:49.871Z,980.87
2022-10-31T02:58:21.654Z,980.99
2022-10-31T03:03:53.481Z,981.02
2022-10-31T03:09:25.290Z,981.04
2022-10-31T03:14:56.807Z,981.0
2022-10-31T03:20:28.510Z,980.74
2022-10-31T03:26:06.658Z,980.86
2022-10-31T03:31:38.446Z,980.9
2022-10-31T03:37:10.190Z,980.95
2022-10-31T03:42:41.863Z,980.93
2022-10-31T03:48:13.540Z,980.98
2022-10-31T03:53:45.618Z,980.95
2022-10-31T03:59:16.940Z,981.15
2022-10-31T04:04:48.811Z,980.95
2022-10-31T04:10:20.635Z,981.14
2022-10-31T04:15:52.211Z,981.18
2022-10-31T04:21:23.963Z,981.3
2022-10-31T04:27:00.044Z,981.2
2022-10-31T04:32:31.791Z,981.23
2022-10-31T04:38:03.536Z,981.11
2022-10-31T04:43:35.205Z,981.12
2022-10-31T04:49:06.990Z,980.97
2022-10-31T04:54:38.643Z,980.97
2022-10-31T05:00:10.410Z,980.9
2022-10-31T05:05:42.318Z,980.91
2022-10-31T05:11:13.816Z,980.76
2022-10-31T05:16:45.539Z,980.94
2022-10-31T05:22:17.387Z,981.07
2022-10-31T05:27:55.570Z,981.0
2022-10-31T05:33:27.255Z,980.89
2022-10-31T05:38:58.799Z,980.99
2022-10-31T05:44:30.441Z,980.81
2022-10-31T05:50:02.348Z,981.13
2022-10-31T05:55:34.602Z,980.99
2022-10-31T06:01:05.987Z,980.92
2022-10-31T06:06:37.422Z,980.89
2022-10-31T06:12:09.178Z,980.44
2022-10-31T06:17:40.944Z,980.42
2022-10-31T06:23:12.626Z,980.46
2022-10-31T06:28:50.726Z,980.56
2022-10-31T06:34:22.502Z,980.91
2022-10-31T06:39:54.409Z,981.01
2022-10-31T06:45:25.932Z,981.22
2022-10-31T06:51:00.366Z,981.31
2022-10-31T06:56:29.592Z,981.35
2022-10-31T07:02:01.636Z,981.49
2022-10-31T07:07:32.840Z,981.69
2022-10-31T07:13:04.624Z,981.86
2022-10-31T07:18:36.281Z,981.91
2022-10-31T07:24:07.962Z,982.45
2022-10-31T07:29:46.147Z,982.54
2022-10-31T07:35:17.843Z,982.74
2022-10-31T07:40:49.625Z,982.82
2022-10-31T07:46:21.222Z,983.15
2022-10-31T07:51:53.130Z,983.25
2022-10-31T07:57:30.657Z,982.63
2022-10-31T08:02:56.733Z,983.56
2022-10-31T08:08:28.145Z,983.48
2022-10-31T08:13:59.999Z,983.38
2022-10-31T08:19:31.627Z,983.0
2022-10-31T08:25:03.396Z,983.16
2022-10-31T08:30:39.505Z,982.73
2022-10-31T08:36:11.233Z,983.4
2022-10-31T08:41:42.863Z,983.98
2022-10-31T08:47:14.907Z,983.77
2022-10-31T08:53:06.852Z,983.73
2022-10-31T08:58:18.133Z,983.57
2022-10-31T09:03:49.776Z,983.65
2022-10-31T09:09:21.582Z,983.73
2022-10-31T09:14:53.316Z,984.18
2022-10-31T09:20:25.055Z,984.01
2022-10-31T09:25:56.784Z,983.28
2022-10-31T09:31:32.889Z,983.26
2022-10-31T09:37:04.630Z,984.04
2022-10-31T09:42:36.576Z,984.19
2022-10-31T09:48:08.052Z,984.06
2022-10-31T09:53:39.862Z,984.09
2022-10-31T09:59:11.523Z,984.17
2022-10-31T10:04:43.354Z,983.34
2022-10-31T10:10:14.948Z,983.41
2022-10-31T10:15:46.674Z,983.39
2022-10-31T10:21:18.422Z,983.77
2022-10-31T10:26:50.114Z,983.95
2022-10-31T10:32:26.310Z,983.64
2022-10-31T10:37:58.757Z,983.34
2022-10-31T10:43:29.694Z,984.08
2022-10-31T10:49:01.515Z,984.05
2022-10-31T10:54:33.352Z,984.15
2022-10-31T11:00:04.842Z,983.99
2022-10-31T11:05:36.584Z,983.89
2022-10-31T11:11:08.516Z,983.81
2022-10-31T11:16:42.253Z,983.73
2022-10-31T11:22:11.696Z,983.47
2022-10-31T11:27:43.731Z,983.54
2022-10-31T11:33:21.570Z,983.42
2022-10-31T11:38:53.329Z,982.89
2022-10-31T11:44:24.930Z,983.21
2022-10-31T11:49:56.707Z,983.15
2022-10-31T11:55:28.487Z,983.29
2022-10-31T12:01:00.171Z,983.21
2022-10-31T12:06:31.833Z,983.3
2022-10-31T12:12:03.706Z,983.13
2022-10-31T12:17:35.421Z,982.33
2022-10-31T12:23:07.285Z,982.16
2022-10-31T12:28:49.830Z,982.8
2022-10-31T12:34:14.788Z,982.82
2022-10-31T12:39:46.637Z,982.51
2022-10-31T12:45:18.324Z,982.39
2022-10-31T12:50:50.094Z,982.37
2022-10-31T12:56:21.909Z,982.42
2022-10-31T13:01:53.883Z,982.1
2022-10-31T13:07:25.192Z,981.67
2022-10-31T13:12:56.964Z,981.87
2022-10-31T13:18:28.613Z,981.52
2022-10-31T13:24:00.390Z,981.46
2022-10-31T13:29:33.722Z,981.33
2022-10-31T13:35:10.510Z,981.26
2022-10-31T13:40:41.994Z,981.12
2022-10-31T13:46:13.580Z,981.5
2022-10-31T13:51:45.695Z,981.69
2022-10-31T13:57:17.143Z,981.52
2022-10-31T14:02:48.816Z,981.71
2022-10-31T14:08:20.655Z,981.29
2022-10-31T14:13:52.365Z,981.25
2022-10-31T14:19:23.970Z,981.2
2022-10-31T14:24:55.706Z,980.94
2022-10-31T14:30:27.448Z,980.85
2022-10-31T14:36:03.535Z,980.73
2022-10-31T14:41:35.261Z,980.59
2022-10-31T14:47:07.018Z,980.47
2022-10-31T14:52:38.726Z,980.39
2022-10-31T14:58:10.435Z,980.41
2022-10-31T15:04:23.409Z,980.35
2022-10-31T15:09:13.959Z,980.28
2022-10-31T15:14:45.599Z,980.14
2022-10-31T15:20:17.463Z,979.98
2022-10-31T15:25:49.106Z,979.94
2022-10-31T15:31:20.850Z,979.46
2022-10-31T15:36:58.926Z,979.08
2022-10-31T15:42:30.670Z,978.82
2022-10-31T15:48:03.684Z,978.85
2022-10-31T15:53:34.087Z,978.71
2022-10-31T15:59:05.737Z,978.54
2022-10-31T16:04:37.528Z,978.49
2022-10-31T16:15:41.108Z,978.35
2022-10-31T16:21:12.762Z,978.2
2022-10-31T16:26:44.538Z,978.01
2022-10-31T16:32:16.168Z,977.73
2022-10-31T16:37:52.315Z,977.67
2022-10-31T16:43:24.022Z,977.9
2022-10-31T16:48:55.603Z,977.65
2022-10-31T16:54:27.461Z,977.72
2022-10-31T16:59:59.281Z,977.71
2022-10-31T17:05:31.029Z,977.71
2022-10-31T17:11:02.810Z,977.98
2022-10-31T17:16:34.638Z,977.99
2022-10-31T17:22:06.026Z,977.91
2022-10-31T17:27:37.851Z,978.22
2022-10-31T17:33:09.638Z,978.61
2022-10-31T17:38:45.702Z,978.61
2022-10-31T17:44:17.446Z,978.19
2022-10-31T17:49:49.079Z,977.75
2022-10-31T17:55:20.839Z,977.51
2022-10-31T18:00:52.915Z,977.48
2022-10-31T18:06:24.295Z,977.65
2022-10-31T18:11:56.026Z,977.69
2022-10-31T18:17:27.822Z,977.61
2022-10-31T18:22:59.487Z,977.55
2022-10-31T18:28:31.338Z,977.28
2022-10-31T18:34:02.870Z,976.61
2022-10-31T18:39:39.011Z,976.84
2022-10-31T18:45:45.702Z,977.57
2022-10-31T18:50:42.502Z,977.77
2022-10-31T18:56:14.197Z,977.54
2022-10-31T19:01:46.156Z,977.3
2022-10-31T19:07:17.845Z,977.06
2022-10-31T19:12:49.430Z,977.86
2022-10-31T19:18:21.120Z,977.7
2022-10-31T19:23:52.810Z,978.29
2022-10-31T19:29:24.732Z,978.74
2022-10-31T19:34:56.251Z,978.4
2022-10-31T19:40:34.535Z,978.38
2022-10-31T19:46:06.188Z,978.83
2022-10-31T19:51:37.971Z,978.41
2022-10-31T19:57:09.524Z,978.02
2022-10-31T20:02:41.329Z,978.21
2022-10-31T20:08:13.160Z,978.38
2022-10-31T20:13:44.775Z,978.44
2022-10-31T20:19:17.433Z,978.95
2022-10-31T20:24:48.503Z,978.9
2022-10-31T20:30:19.942Z,979.18
2022-10-31T20:35:51.676Z,979.33
2022-10-31T20:41:27.925Z,979.18
2022-10-31T20:46:59.490Z,979.04
2022-10-31T20:52:31.268Z,978.92
2022-10-31T20:58:02.880Z,978.87
2022-10-31T21:03:34.635Z,979.05
2022-10-31T21:09:06.327Z,978.88
2022-10-31T21:14:38.159Z,978.76
2022-10-31T21:20:09.943Z,978.84
2022-10-31T21:25:41.539Z,978.88
2022-10-31T21:31:13.630Z,978.51
2022-10-31T21:36:45.067Z,978.53
2022-10-31T21:42:22.502Z,978.37
2022-10-31T21:47:52.778Z,978.33
2022-10-31T21:53:24.583Z,978.35
2022-10-31T21:58:56.314Z,978.51
2022-10-31T22:04:28.225Z,978.57
2022-10-31T22:09:59.782Z,978.56
2022-10-31T22:15:31.542Z,978.32
2022-10-31T22:21:03.165Z,977.9
2022-10-31T22:26:34.921Z,978.25
2022-10-31T22:32:06.626Z,978.36
2022-10-31T22:37:38.393Z,978.49
2022-10-31T22:43:14.470Z,978.41
2022-10-31T22:48:46.239Z,978.58
2022-10-31T22:54:17.870Z,978.66
2022-10-31T22:59:49.647Z,979.09
2022-10-31T23:05:21.366Z,978.94
2022-10-31T23:10:53.254Z,979.08
2022-10-31T23:16:24.813Z,979.2
2022-10-31T23:21:57.752Z,979.05
2022-10-31T23:27:28.203Z,979.27
2022-10-31T23:33:00.828Z,979.38
2022-10-31T23:38:31.648Z,979.41
2022-10-31T23:44:07.930Z,979.28
2022-10-31T23:49:39.525Z,979.43
2022-10-31T23:55:11.228Z,979.57
